createdAt,value
2018-10-16T00:01:00.815Z,9.67
2018-10-16T00:03:31.216Z,9.71
2018-10-16T00:06:01.642Z,9.72
2018-10-16T00:08:32.021Z,9.68
2018-10-16T00:11:02.717Z,9.63
2018-10-16T00:13:33.116Z,9.52
2018-10-16T00:16:03.465Z,9.51
2018-10-16T00:18:35.181Z,9.42
2018-10-16T00:21:05.669Z,9.48
2018-10-16T00:23:35.942Z,9.45
2018-10-16T00:26:07.215Z,9.47
2018-10-16T00:28:39.849Z,9.44
2018-10-16T00:31:10.810Z,9.39
2018-10-16T00:33:41.148Z,9.29
2018-10-16T00:36:11.460Z,9.25
2018-10-16T00:38:42.046Z,9.23
2018-10-16T00:41:12.304Z,9.23
2018-10-16T00:43:42.634Z,9.21
2018-10-16T00:46:12.954Z,9.14
2018-10-16T00:48:43.755Z,9.17
2018-10-16T00:51:14.088Z,9.20
2018-10-16T00:53:44.356Z,9.21
2018-10-16T00:56:14.690Z,9.18
2018-10-16T00:58:45.041Z,9.14
2018-10-16T01:01:17.845Z,9.12
2018-10-16T01:03:48.148Z,9.16
2018-10-16T01:06:18.491Z,9.16
2018-10-16T01:08:48.819Z,9.16
2018-10-16T01:11:19.589Z,9.18
2018-10-16T01:13:49.922Z,9.16
2018-10-16T01:16:20.389Z,9.17
2018-10-16T01:18:50.744Z,9.08
2018-10-16T01:21:22.010Z,8.97
2018-10-16T01:23:52.956Z,8.97
2018-10-16T01:26:23.747Z,8.99
2018-10-16T01:28:55.483Z,8.99
2018-10-16T01:31:25.820Z,8.94
2018-10-16T01:33:56.269Z,8.93
2018-10-16T01:36:26.582Z,8.94
2018-10-16T01:39:05.425Z,8.86
2018-10-16T01:41:35.822Z,8.83
2018-10-16T01:44:06.144Z,8.77
2018-10-16T01:46:36.416Z,8.72
2018-10-16T01:49:06.958Z,8.74
2018-10-16T01:51:37.278Z,8.76
2018-10-16T01:54:09.805Z,8.67
2018-10-16T01:56:40.210Z,8.72
2018-10-16T01:59:10.440Z,8.70
2018-10-16T02:01:40.788Z,8.73
2018-10-16T02:04:11.392Z,8.75
2018-10-16T02:06:41.841Z,8.73
2018-10-16T02:09:13.332Z,8.72
2018-10-16T02:11:43.668Z,8.71
2018-10-16T02:14:13.917Z,8.72
2018-10-16T02:16:44.396Z,8.65
2018-10-16T02:19:15.107Z,8.68
2018-10-16T02:21:45.462Z,8.67
2018-10-16T02:24:15.893Z,8.64
2018-10-16T02:26:46.187Z,8.63
2018-10-16T02:29:17.531Z,8.63
2018-10-16T02:31:47.811Z,8.62
2018-10-16T02:34:18.227Z,8.57
2018-10-16T02:36:48.525Z,8.60
2018-10-16T02:39:18.800Z,8.59
2018-10-16T02:41:49.147Z,8.62
2018-10-16T02:44:19.924Z,8.58
2018-10-16T02:46:50.314Z,8.60
2018-10-16T02:49:20.612Z,8.61
2018-10-16T02:51:50.958Z,8.64
2018-10-16T02:54:21.689Z,8.61
2018-10-16T02:56:52.068Z,8.57
2018-10-16T02:59:22.376Z,8.53
2018-10-16T03:01:52.674Z,8.53
2018-10-16T03:04:23.004Z,8.51
2018-10-16T03:06:53.359Z,8.51
2018-10-16T03:09:24.975Z,8.48
2018-10-16T03:11:55.282Z,8.48
2018-10-16T03:14:25.585Z,8.46
2018-10-16T03:16:55.896Z,8.45
2018-10-16T03:19:26.586Z,8.48
2018-10-16T03:21:56.747Z,8.42
2018-10-16T03:24:26.933Z,8.49
2018-10-16T03:26:57.060Z,8.51
2018-10-16T03:29:27.191Z,8.51
2018-10-16T03:31:57.336Z,8.50
2018-10-16T03:34:27.775Z,8.46
2018-10-16T03:36:58.007Z,8.42
2018-10-16T03:39:28.151Z,8.44
2018-10-16T03:41:58.295Z,8.42
2018-10-16T03:44:28.743Z,8.42
2018-10-16T03:46:58.960Z,8.44
2018-10-16T03:49:29.557Z,8.41
2018-10-16T03:51:59.719Z,8.40
2018-10-16T03:54:30.533Z,8.37
2018-10-16T03:57:05.636Z,8.36
2018-10-16T04:02:12.921Z,8.39
2018-10-16T04:04:43.449Z,8.42
2018-10-16T04:07:13.632Z,8.45
2018-10-16T04:09:43.788Z,8.46
2018-10-16T04:12:14.126Z,8.39
2018-10-16T04:14:45.297Z,8.39
2018-10-16T04:17:15.440Z,8.39
2018-10-16T04:19:45.684Z,8.44
2018-10-16T04:22:17.240Z,8.41
2018-10-16T04:24:47.367Z,8.51
2018-10-16T04:27:17.429Z,8.55
2018-10-16T04:29:47.607Z,8.58
2018-10-16T04:32:18.303Z,8.61
2018-10-16T04:34:48.715Z,8.54
2018-10-16T04:37:18.885Z,8.53
2018-10-16T04:39:49.256Z,8.54
2018-10-16T04:42:19.378Z,8.49
2018-10-16T04:44:49.538Z,8.49
2018-10-16T04:47:20.084Z,8.50
2018-10-16T04:49:50.267Z,8.54
2018-10-16T04:52:20.397Z,8.58
2018-10-16T04:54:50.881Z,8.54
2018-10-16T04:57:21.341Z,8.57
2018-10-16T04:59:51.608Z,8.61
2018-10-16T05:02:22.237Z,8.68
2018-10-16T05:04:52.674Z,8.70
2018-10-16T05:07:22.925Z,8.72
2018-10-16T05:09:53.366Z,8.76
2018-10-16T05:12:23.543Z,8.84
2018-10-16T05:14:53.800Z,8.79
2018-10-16T05:17:24.281Z,8.76
2018-10-16T05:19:54.691Z,8.76
2018-10-16T05:22:24.795Z,8.76
2018-10-16T05:24:54.893Z,8.79
2018-10-16T05:27:25.101Z,8.80
2018-10-16T05:29:55.259Z,8.86
2018-10-16T05:32:25.920Z,8.89
2018-10-16T05:34:56.511Z,8.88
2018-10-16T05:37:26.637Z,8.91
2018-10-16T05:39:56.727Z,8.88
2018-10-16T05:42:26.871Z,8.79
2018-10-16T05:44:57.035Z,8.71
2018-10-16T05:47:27.339Z,8.63
2018-10-16T05:49:57.808Z,8.59
2018-10-16T05:52:28.868Z,8.55
2018-10-16T05:54:59.536Z,8.49
2018-10-16T05:57:29.835Z,8.38
2018-10-16T06:00:10.540Z,8.37
2018-10-16T06:02:40.780Z,8.40
2018-10-16T06:05:12.106Z,8.34
2018-10-16T06:07:43.405Z,8.33
2018-10-16T06:10:14.081Z,8.32
2018-10-16T06:12:44.299Z,8.34
2018-10-16T06:15:14.830Z,8.40
2018-10-16T06:17:45.073Z,8.37
2018-10-16T06:20:15.295Z,8.36
2018-10-16T06:22:45.500Z,8.34
2018-10-16T06:25:15.751Z,8.30
2018-10-16T06:27:45.985Z,8.32
2018-10-16T06:30:16.698Z,8.24
2018-10-16T06:32:46.832Z,8.27
2018-10-16T06:35:17.063Z,8.28
2018-10-16T06:37:47.260Z,8.31
2018-10-16T06:40:17.729Z,8.34
2018-10-16T06:42:47.840Z,8.38
2018-10-16T06:45:17.975Z,8.42
2018-10-16T06:47:48.290Z,8.46
2018-10-16T06:50:18.419Z,8.50
2018-10-16T06:52:48.516Z,8.55
2018-10-16T06:55:20.856Z,8.57
2018-10-16T06:57:51.090Z,8.60
2018-10-16T07:00:21.560Z,8.63
2018-10-16T07:02:51.936Z,8.66
2018-10-16T07:05:22.127Z,8.67
2018-10-16T07:07:52.268Z,8.73
2018-10-16T07:10:22.512Z,8.78
2018-10-16T07:12:53.039Z,8.81
2018-10-16T07:15:23.212Z,8.84
2018-10-16T07:17:53.263Z,8.89
2018-10-16T07:20:23.534Z,8.95
2018-10-16T07:22:53.743Z,9.03
2018-10-16T07:25:23.996Z,9.12
2018-10-16T07:27:54.574Z,9.22
2018-10-16T07:30:24.896Z,9.31
2018-10-16T07:32:55.077Z,9.35
2018-10-16T07:35:25.240Z,9.43
2018-10-16T07:37:56.451Z,9.53
2018-10-16T07:40:26.615Z,9.68
2018-10-16T07:42:57.056Z,9.81
2018-10-16T07:45:27.143Z,10.02
2018-10-16T07:47:57.447Z,10.23
2018-10-16T07:50:27.589Z,10.46
2018-10-16T07:52:57.734Z,10.75
2018-10-16T07:55:28.017Z,10.95
2018-10-16T07:57:58.432Z,11.12
2018-10-16T08:00:28.652Z,11.20
2018-10-16T08:02:58.784Z,11.28
2018-10-16T08:05:28.947Z,11.38
2018-10-16T08:07:59.083Z,11.57
2018-10-16T08:10:29.212Z,11.76
2018-10-16T08:12:59.736Z,12.08
2018-10-16T08:15:29.934Z,12.29
2018-10-16T08:18:00.151Z,12.40
2018-10-16T08:20:30.371Z,12.72
2018-10-16T08:23:00.829Z,13.14
2018-10-16T08:25:30.999Z,13.30
2018-10-16T08:28:01.229Z,13.50
2018-10-16T08:30:31.580Z,13.96
2018-10-16T08:33:01.735Z,14.61
2018-10-16T08:35:32.008Z,15.09
2018-10-16T08:40:10.130Z,15.59
2018-10-16T08:43:51.128Z,17.32
2018-10-16T08:46:32.351Z,18.73
2018-10-16T08:49:13.263Z,19.34
2018-10-16T08:51:49.335Z,20.20
2018-10-16T08:54:19.693Z,20.98
2018-10-16T08:56:49.968Z,21.90
2018-10-16T08:59:20.641Z,22.55
2018-10-16T09:01:51.149Z,22.62
2018-10-16T09:04:21.352Z,21.75
2018-10-16T09:06:51.665Z,20.78
2018-10-16T09:09:22.357Z,20.41
2018-10-16T09:11:52.518Z,19.96
2018-10-16T09:14:22.845Z,19.76
2018-10-16T09:16:53.056Z,19.22
2018-10-16T09:19:25.464Z,19.04
2018-10-16T09:21:55.597Z,19.12
2018-10-16T09:24:25.761Z,18.96
2018-10-16T09:26:55.848Z,18.86
2018-10-16T09:29:27.342Z,18.59
2018-10-16T09:31:57.520Z,18.54
2018-10-16T09:34:27.691Z,18.48
2018-10-16T09:36:57.917Z,18.37
2018-10-16T09:39:28.082Z,18.36
2018-10-16T09:41:58.308Z,18.60
2018-10-16T09:44:28.988Z,19.16
2018-10-16T09:46:59.512Z,20.12
2018-10-16T09:49:29.759Z,20.85
2018-10-16T09:51:59.939Z,21.13
2018-10-16T09:54:30.144Z,21.27
2018-10-16T09:57:00.403Z,21.11
2018-10-16T09:59:30.955Z,20.37
2018-10-16T10:02:01.066Z,19.86
2018-10-16T10:04:31.499Z,19.39
2018-10-16T10:07:01.845Z,19.07
2018-10-16T10:09:32.269Z,18.90
2018-10-16T10:12:03.186Z,18.79
2018-10-16T10:14:33.910Z,18.74
2018-10-16T10:17:04.220Z,18.74
2018-10-16T10:19:34.407Z,18.63
2018-10-16T10:22:04.876Z,18.62
2018-10-16T10:24:35.308Z,18.65
2018-10-16T10:27:05.469Z,18.61
2018-10-16T10:29:36.634Z,18.68
2018-10-16T10:32:08.247Z,18.69
2018-10-16T10:34:38.455Z,18.76
2018-10-16T10:37:11.359Z,18.76
2018-10-16T10:39:41.524Z,19.02
2018-10-16T10:42:11.788Z,19.01
2018-10-16T10:44:42.728Z,18.97
2018-10-16T10:47:13.422Z,18.90
2018-10-16T10:49:43.643Z,19.06
2018-10-16T10:52:19.499Z,19.12
2018-10-16T10:54:57.865Z,19.14
2018-10-16T10:57:28.020Z,19.18
2018-10-16T10:59:58.480Z,19.26
2018-10-16T11:02:28.671Z,19.29
2018-10-16T11:04:58.890Z,19.34
2018-10-16T11:07:31.145Z,19.28
2018-10-16T11:10:10.317Z,19.27
2018-10-16T11:12:43.237Z,19.37
2018-10-16T11:15:20.764Z,19.39
2018-10-16T11:17:51.636Z,19.52
2018-10-16T11:20:22.424Z,19.55
2018-10-16T11:22:53.435Z,19.61
2018-10-16T11:25:44.942Z,19.66
2018-10-16T11:28:15.067Z,19.73
2018-10-16T11:30:45.656Z,19.82
2018-10-16T11:33:15.876Z,19.96
2018-10-16T11:35:46.047Z,19.95
2018-10-16T11:38:16.311Z,20.01
2018-10-16T11:40:46.571Z,20.11
2018-10-16T11:43:17.017Z,20.10
2018-10-16T11:45:47.199Z,20.14
2018-10-16T11:48:17.440Z,20.15
2018-10-16T11:50:47.844Z,20.17
2018-10-16T11:53:22.131Z,20.19
2018-10-16T11:55:52.314Z,20.27
2018-10-16T11:58:22.522Z,20.43
2018-10-16T12:00:52.693Z,20.63
2018-10-16T12:03:23.384Z,20.78
2018-10-16T12:05:53.545Z,20.89
2018-10-16T12:08:23.687Z,20.87
2018-10-16T12:10:53.923Z,20.88
2018-10-16T12:13:24.167Z,20.89
2018-10-16T12:15:54.763Z,20.94
2018-10-16T12:18:28.243Z,21.11
2018-10-16T12:21:03.526Z,21.03
2018-10-16T12:23:33.708Z,21.18
2018-10-16T12:26:06.286Z,21.75
2018-10-16T12:28:36.720Z,22.63
2018-10-16T12:31:07.000Z,22.86
2018-10-16T12:33:37.240Z,22.54
2018-10-16T12:36:07.796Z,22.43
2018-10-16T12:38:38.126Z,22.20
2018-10-16T12:41:08.647Z,22.21
2018-10-16T12:43:39.077Z,22.88
2018-10-16T12:46:09.154Z,24.15
2018-10-16T12:48:39.688Z,24.49
2018-10-16T12:51:10.004Z,24.28
2018-10-16T12:53:40.064Z,23.55
2018-10-16T12:56:11.936Z,23.12
2018-10-16T12:58:42.277Z,22.86
2018-10-16T13:01:12.440Z,22.64
2018-10-16T13:03:42.614Z,22.35
2018-10-16T13:06:13.143Z,22.39
2018-10-16T13:08:43.347Z,22.16
2018-10-16T13:11:13.575Z,21.98
2018-10-16T13:13:43.796Z,22.07
2018-10-16T13:16:15.366Z,21.90
2018-10-16T13:18:45.592Z,21.72
2018-10-16T13:21:16.030Z,21.71
2018-10-16T13:23:46.248Z,21.72
2018-10-16T13:26:16.540Z,21.73
2018-10-16T13:28:46.773Z,21.81
2018-10-16T13:31:18.343Z,21.90
2018-10-16T13:33:48.586Z,21.99
2018-10-16T13:36:18.689Z,21.81
2018-10-16T13:38:49.533Z,21.91
2018-10-16T13:41:21.049Z,21.79
2018-10-16T13:43:51.303Z,21.82
2018-10-16T13:46:21.634Z,21.81
2018-10-16T13:48:51.759Z,21.81
2018-10-16T13:51:21.956Z,21.82
2018-10-16T13:53:52.473Z,21.80
2018-10-16T13:56:22.693Z,21.81
2018-10-16T13:58:52.986Z,21.86
2018-10-16T14:01:23.176Z,21.92
2018-10-16T14:03:53.631Z,21.97
2018-10-16T14:06:23.892Z,22.19
2018-10-16T14:08:54.109Z,22.31
2018-10-16T14:11:24.584Z,22.65
2018-10-16T14:13:55.021Z,22.61
2018-10-16T14:16:25.326Z,22.57
2018-10-16T14:18:56.864Z,22.52
2018-10-16T14:21:27.886Z,22.39
2018-10-16T14:23:58.243Z,22.55
2018-10-16T14:26:28.552Z,22.51
2018-10-16T14:28:59.051Z,22.77
2018-10-16T14:31:31.399Z,22.76
2018-10-16T14:34:01.615Z,22.77
2018-10-16T14:36:32.269Z,22.72
2018-10-16T14:39:02.572Z,22.50
2018-10-16T14:41:33.560Z,22.30
2018-10-16T14:44:04.819Z,22.17
2018-10-16T14:46:35.109Z,22.20
2018-10-16T14:49:06.161Z,22.23
2018-10-16T14:51:42.859Z,22.26
2018-10-16T14:54:13.776Z,22.30
2018-10-16T14:56:44.347Z,23.63
2018-10-16T14:59:16.323Z,24.11
2018-10-16T15:01:49.269Z,23.90
2018-10-16T15:04:19.590Z,23.37
2018-10-16T15:06:49.883Z,22.76
2018-10-16T15:09:21.224Z,22.84
2018-10-16T15:11:53.292Z,22.83
2018-10-16T15:14:23.569Z,22.60
2018-10-16T15:16:54.036Z,22.28
2018-10-16T15:19:28.324Z,22.17
2018-10-16T15:21:58.431Z,21.90
2018-10-16T15:24:28.693Z,21.64
2018-10-16T15:26:59.591Z,21.41
2018-10-16T15:29:29.775Z,21.25
2018-10-16T15:32:00.373Z,21.14
2018-10-16T15:34:30.708Z,21.04
2018-10-16T15:37:00.889Z,21.06
2018-10-16T15:39:31.427Z,20.99
2018-10-16T15:42:01.622Z,20.82
2018-10-16T15:44:32.240Z,20.94
2018-10-16T15:47:02.539Z,20.82
2018-10-16T15:49:37.798Z,20.65
2018-10-16T15:52:08.384Z,20.47
2018-10-16T15:54:38.553Z,20.30
2018-10-16T15:57:08.820Z,20.07
2018-10-16T15:59:39.683Z,19.98
2018-10-16T16:02:10.086Z,19.74
2018-10-16T16:04:40.564Z,19.47
2018-10-16T16:07:10.896Z,19.25
2018-10-16T16:09:41.053Z,19.10
2018-10-16T16:12:11.427Z,18.96
2018-10-16T16:14:41.695Z,18.76
2018-10-16T16:17:12.331Z,18.51
2018-10-16T16:19:42.834Z,18.34
2018-10-16T16:22:13.071Z,18.18
2018-10-16T16:24:43.427Z,17.84
2018-10-16T16:27:14.266Z,17.63
2018-10-16T16:29:44.432Z,17.62
2018-10-16T16:32:14.681Z,17.55
2018-10-16T16:34:44.885Z,17.47
2018-10-16T16:37:15.166Z,17.39
2018-10-16T16:39:46.829Z,17.23
2018-10-16T16:42:17.844Z,17.13
2018-10-16T16:44:48.164Z,16.98
2018-10-16T16:47:18.428Z,16.84
2018-10-16T16:49:52.910Z,16.77
2018-10-16T16:52:23.495Z,16.68
2018-10-16T16:54:53.878Z,16.61
2018-10-16T16:57:24.364Z,16.49
2018-10-16T16:59:56.942Z,16.40
2018-10-16T17:02:27.173Z,16.31
2018-10-16T17:04:57.459Z,16.24
2018-10-16T17:07:28.073Z,16.14
2018-10-16T17:09:58.423Z,16.06
2018-10-16T17:12:28.736Z,16.02
2018-10-16T17:15:00.472Z,15.88
2018-10-16T17:17:30.787Z,15.78
2018-10-16T17:20:01.001Z,15.71
2018-10-16T17:22:31.154Z,15.65
2018-10-16T17:25:01.921Z,15.64
2018-10-16T17:27:34.053Z,15.61
2018-10-16T17:30:09.768Z,15.54
2018-10-16T17:32:40.020Z,15.42
2018-10-16T17:35:12.909Z,15.33
2018-10-16T17:37:50.793Z,15.21
2018-10-16T17:40:21.402Z,15.13
2018-10-16T17:42:52.225Z,15.13
2018-10-16T17:45:22.898Z,15.04
2018-10-16T17:47:53.614Z,15.01
2018-10-16T17:50:27.468Z,15.01
2018-10-16T17:52:57.870Z,15.03
2018-10-16T17:55:28.628Z,14.95
2018-10-16T17:57:58.818Z,14.87
2018-10-16T18:00:28.941Z,14.90
2018-10-16T18:02:59.271Z,14.86
2018-10-16T18:05:31.458Z,14.82
2018-10-16T18:08:03.077Z,14.76
2018-10-16T18:10:33.551Z,14.69
2018-10-16T18:13:05.198Z,14.63
2018-10-16T18:15:36.894Z,14.61
2018-10-16T18:18:07.520Z,14.56
2018-10-16T18:20:37.801Z,14.52
2018-10-16T18:23:08.674Z,14.48
2018-10-16T18:25:39.436Z,14.36
2018-10-16T18:28:11.249Z,14.24
2018-10-16T18:30:41.800Z,14.16
2018-10-16T18:33:12.152Z,14.09
2018-10-16T18:35:44.795Z,14.01
2018-10-16T18:38:15.286Z,13.98
2018-10-16T18:40:46.224Z,13.91
2018-10-16T18:43:16.807Z,13.80
2018-10-16T18:45:47.324Z,13.76
2018-10-16T18:48:18.401Z,13.69
2018-10-16T18:50:50.450Z,13.63
2018-10-16T18:53:21.958Z,13.56
2018-10-16T18:55:54.407Z,13.50
2018-10-16T19:01:01.267Z,13.39
2018-10-16T19:03:31.694Z,13.32
2018-10-16T19:06:04.025Z,13.24
2018-10-16T19:08:37.564Z,13.16
2018-10-16T19:11:15.609Z,13.18
2018-10-16T19:13:46.327Z,13.13
2018-10-16T19:16:17.445Z,13.09
2018-10-16T19:18:48.884Z,13.05
2018-10-16T19:21:19.559Z,12.97
2018-10-16T19:23:52.201Z,12.96
2018-10-16T19:26:22.812Z,12.87
2018-10-16T19:28:53.229Z,12.81
2018-10-16T19:31:24.683Z,12.82
2018-10-16T19:34:07.904Z,12.77
2018-10-16T19:36:38.294Z,12.72
2018-10-16T19:39:11.077Z,12.75
2018-10-16T19:41:42.422Z,12.72
2018-10-16T19:44:12.709Z,12.65
2018-10-16T19:46:43.257Z,12.65
2018-10-16T19:49:14.226Z,12.58
2018-10-16T19:51:46.563Z,12.56
2018-10-16T19:54:19.263Z,12.55
2018-10-16T19:56:50.215Z,12.51
2018-10-16T19:59:20.485Z,12.43
2018-10-16T20:01:51.477Z,12.43
2018-10-16T20:04:23.384Z,12.37
2018-10-16T20:06:54.175Z,12.33
2018-10-16T20:09:24.755Z,12.32
2018-10-16T20:11:55.615Z,12.27
2018-10-16T20:14:25.874Z,12.24
2018-10-16T20:16:57.114Z,12.18
2018-10-16T20:19:27.654Z,12.19
2018-10-16T20:22:00.334Z,12.17
2018-10-16T20:24:31.021Z,12.19
2018-10-16T20:30:16.237Z,12.20
2018-10-16T20:32:46.739Z,12.07
2018-10-16T20:35:17.231Z,12.13
2018-10-16T20:37:47.741Z,11.99
2018-10-16T20:40:17.934Z,11.85
2018-10-16T20:42:48.468Z,11.85
2018-10-16T20:45:18.572Z,11.79
2018-10-16T20:47:49.810Z,11.82
2018-10-16T20:50:20.242Z,11.72
2018-10-16T20:52:50.423Z,11.72
2018-10-16T20:55:20.551Z,11.78
2018-10-16T20:57:50.804Z,11.68
2018-10-16T21:00:21.459Z,11.66
2018-10-16T21:02:51.671Z,11.68
2018-10-16T21:05:22.219Z,11.69
2018-10-16T21:07:52.179Z,11.62
2018-10-16T21:10:23.999Z,11.60
2018-10-16T21:12:54.450Z,11.55
2018-10-16T21:15:25.016Z,11.49
2018-10-16T21:17:55.726Z,11.42
2018-10-16T21:20:25.853Z,11.37
2018-10-16T21:22:56.229Z,11.35
2018-10-16T21:25:26.559Z,11.35
2018-10-16T21:27:58.098Z,11.32
2018-10-16T21:30:29.153Z,11.29
2018-10-16T21:32:59.508Z,11.25
2018-10-16T21:35:31.397Z,11.28
2018-10-16T21:38:01.736Z,11.22
2018-10-16T21:40:32.103Z,11.13
2018-10-16T21:43:02.467Z,11.08
2018-10-16T21:45:32.898Z,11.04
2018-10-16T21:48:03.224Z,11.04
2018-10-16T21:50:34.779Z,11.04
2018-10-16T21:53:05.098Z,11.04
2018-10-16T21:55:35.686Z,11.02
2018-10-16T21:58:06.244Z,10.99
2018-10-16T22:00:41.843Z,11.04
2018-10-16T22:03:11.931Z,11.10
2018-10-16T22:05:42.133Z,11.13
2018-10-16T22:08:12.683Z,11.16
2018-10-16T22:10:43.327Z,11.14
2018-10-16T22:13:13.635Z,11.17
2018-10-16T22:15:44.108Z,11.10
2018-10-16T22:18:14.304Z,11.04
2018-10-16T22:20:44.643Z,11.02
2018-10-16T22:23:16.708Z,11.03
2018-10-16T22:25:47.522Z,10.99
2018-10-16T22:28:17.643Z,10.86
2018-10-16T22:30:48.010Z,10.77
2018-10-16T22:33:18.160Z,10.71
2018-10-16T22:35:48.329Z,10.71
2018-10-16T22:38:18.900Z,10.66
2018-10-16T22:40:49.031Z,10.66
2018-10-16T22:43:19.185Z,10.61
2018-10-16T22:45:49.353Z,10.59
2018-10-16T22:48:19.522Z,10.58
2018-10-16T22:50:49.960Z,10.52
2018-10-16T22:53:20.068Z,10.56
2018-10-16T22:55:50.803Z,10.55
2018-10-16T22:58:21.036Z,10.53
2018-10-16T23:00:51.305Z,10.38
2018-10-16T23:03:21.626Z,10.30
2018-10-16T23:05:53.260Z,10.27
2018-10-16T23:08:23.724Z,10.26
2018-10-16T23:10:53.926Z,10.25
2018-10-16T23:13:24.123Z,10.29
2018-10-16T23:15:54.267Z,10.29
2018-10-16T23:18:26.273Z,10.37
2018-10-16T23:20:56.497Z,10.37
2018-10-16T23:23:26.736Z,10.32
2018-10-16T23:25:57.092Z,10.27
2018-10-16T23:28:27.540Z,10.40
2018-10-16T23:30:57.732Z,10.41
2018-10-16T23:33:27.860Z,10.40
2018-10-16T23:35:58.536Z,10.33
2018-10-16T23:38:28.615Z,10.25
2018-10-16T23:40:59.214Z,10.22
2018-10-16T23:43:29.708Z,10.24
2018-10-16T23:45:59.763Z,10.16
2018-10-16T23:48:29.907Z,10.13
2018-10-16T23:51:00.353Z,10.16
2018-10-16T23:53:31.024Z,10.17
2018-10-16T23:56:01.154Z,10.21
2018-10-16T23:58:31.439Z,10.29
